createdAt,value
2018-11-22T18:13:58.293Z,11.47
2018-11-22T18:16:26.989Z,13.87
2018-11-22T18:18:55.687Z,10.53
2018-11-22T18:21:24.185Z,10.10
2018-11-22T18:23:52.992Z,8.87
2018-11-22T18:26:21.509Z,10.57
2018-11-22T18:28:50.827Z,10.77
2018-11-22T18:31:19.459Z,10.27
2018-11-22T18:33:48.017Z,12.13
2018-11-22T18:36:16.564Z,14.00
2018-11-22T18:38:45.170Z,12.50
2018-11-22T18:41:14.217Z,11.80
2018-11-22T18:43:43.264Z,10.43
2018-11-22T18:46:12.724Z,12.27
2018-11-22T18:48:41.438Z,13.03
2018-11-22T18:51:10.107Z,18.43
2018-11-22T18:53:38.765Z,17.00
2018-11-22T18:56:07.321Z,14.83
2018-11-22T18:58:36.917Z,13.80
2018-11-22T19:01:04.615Z,13.93
2018-11-22T19:03:33.288Z,16.17
2018-11-22T19:06:02.242Z,13.70
2018-11-22T19:08:31.167Z,13.17
2018-11-22T19:11:00.628Z,13.40
2018-11-22T19:13:29.822Z,13.10
2018-11-22T19:15:58.484Z,11.97
2018-11-22T19:18:27.042Z,12.00
2018-11-22T19:20:55.819Z,11.60
2018-11-22T19:23:24.598Z,12.53
2018-11-22T19:25:53.263Z,10.03
2018-11-22T19:28:26.224Z,8.47
2018-11-22T19:30:55.255Z,10.73
2018-11-22T19:33:24.261Z,12.07
2018-11-22T19:35:53.948Z,10.90
2018-11-22T19:38:22.737Z,10.63
2018-11-22T19:40:51.330Z,10.70
2018-11-22T19:43:19.995Z,11.30
2018-11-22T19:45:49.561Z,11.53
2018-11-22T19:48:18.499Z,13.10
2018-11-22T19:50:47.573Z,10.53
2018-11-22T19:53:17.102Z,11.07
2018-11-22T19:55:45.895Z,9.63
2018-11-22T19:58:15.777Z,10.83
2018-11-22T20:00:44.522Z,11.03
2018-11-22T20:03:13.398Z,10.87
2018-11-22T20:05:44.531Z,10.80
2018-11-22T20:08:15.149Z,9.70
2018-11-22T20:10:44.955Z,10.43
2018-11-22T20:13:13.612Z,11.07
2018-11-22T20:15:42.608Z,11.20
2018-11-22T20:18:12.752Z,10.90
2018-11-22T20:20:41.805Z,12.43
2018-11-22T20:23:10.393Z,11.63
2018-11-22T20:25:39.359Z,12.47
2018-11-22T20:28:09.249Z,13.53
2018-11-22T20:30:50.324Z,14.07
2018-11-22T20:33:18.936Z,15.17
2018-11-22T20:35:47.495Z,15.70
2018-11-22T20:38:16.047Z,15.00
2018-11-22T20:40:44.566Z,13.50
2018-11-22T20:43:13.074Z,12.30
2018-11-22T20:45:42.669Z,11.53
2018-11-22T20:48:11.219Z,11.47
2018-11-22T20:50:39.904Z,10.53
2018-11-22T20:53:08.499Z,10.67
2018-11-22T20:55:38.367Z,9.07
2018-11-22T20:58:07.373Z,9.07
2018-11-22T21:00:38.600Z,9.40
2018-11-22T21:03:07.154Z,8.87
2018-11-22T21:05:35.718Z,9.63
2018-11-22T21:08:04.238Z,8.10
2018-11-22T21:10:33.375Z,9.10
2018-11-22T21:13:01.887Z,9.60
2018-11-22T21:15:32.329Z,9.23
2018-11-22T21:18:03.119Z,9.93
2018-11-22T21:20:34.048Z,8.80
2018-11-22T21:23:02.585Z,8.77
2018-11-22T21:25:31.078Z,9.13
2018-11-22T21:27:59.565Z,9.50
2018-11-22T21:30:30.420Z,10.50
2018-11-22T21:32:59.507Z,9.60
2018-11-22T21:35:28.117Z,9.00
2018-11-22T21:37:57.504Z,9.23
2018-11-22T21:40:26.578Z,10.37
2018-11-22T21:42:55.102Z,11.03
2018-11-22T21:45:24.683Z,12.10
2018-11-22T21:47:53.335Z,9.07
2018-11-22T21:50:23.298Z,10.33
2018-11-22T21:52:51.816Z,9.53
2018-11-22T21:55:23.641Z,8.37
2018-11-22T21:57:53.194Z,9.13
2018-11-22T22:00:27.784Z,9.73
2018-11-22T22:02:58.979Z,9.77
2018-11-22T22:05:27.516Z,11.83
2018-11-22T22:07:56.090Z,9.77
2018-11-22T22:10:24.640Z,8.87
2018-11-22T22:12:53.157Z,10.43
2018-11-22T22:15:23.050Z,10.43
2018-11-22T22:17:51.523Z,9.30
2018-11-22T22:20:21.339Z,9.77
2018-11-22T22:22:49.864Z,9.07
2018-11-22T22:25:19.668Z,10.33
2018-11-22T22:27:48.839Z,12.83
2018-11-22T22:30:18.875Z,11.57
2018-11-22T22:32:48.370Z,9.77
2018-11-22T22:36:41.293Z,11.53
2018-11-22T22:39:11.269Z,8.10
2018-11-22T22:41:39.750Z,8.73
2018-11-22T22:44:08.318Z,9.17
2018-11-22T22:46:36.803Z,9.17
2018-11-22T22:49:05.410Z,8.53
2018-11-22T22:51:33.896Z,9.57
2018-11-22T22:54:02.381Z,11.80
2018-11-22T22:56:30.870Z,10.40
2018-11-22T22:58:59.406Z,11.43
2018-11-22T23:01:27.971Z,11.87
2018-11-22T23:03:56.459Z,10.80
2018-11-22T23:06:24.971Z,9.47
2018-11-22T23:08:53.502Z,9.87
2018-11-22T23:11:21.990Z,9.77
2018-11-22T23:13:50.666Z,8.73
2018-11-22T23:16:19.159Z,8.57
2018-11-22T23:18:47.691Z,8.00
2018-11-22T23:21:16.186Z,8.30
2018-11-22T23:23:44.696Z,9.43
2018-11-22T23:26:13.190Z,7.63
2018-11-22T23:28:41.687Z,9.23
2018-11-22T23:31:10.170Z,8.37
2018-11-22T23:33:38.686Z,8.43
2018-11-22T23:36:08.076Z,8.57
2018-11-22T23:38:36.582Z,9.07
2018-11-22T23:41:05.227Z,8.20
2018-11-22T23:43:33.802Z,8.03
2018-11-22T23:46:02.283Z,8.07
2018-11-22T23:48:30.787Z,8.13
2018-11-22T23:50:59.285Z,7.73
2018-11-22T23:53:27.771Z,8.00
2018-11-22T23:55:56.313Z,6.77
2018-11-22T23:58:24.797Z,8.63
